createdAt,value
2017-01-08T00:00:15.676Z,1020.54
2017-01-08T00:00:56.258Z,1020.5
2017-01-08T00:01:36.843Z,1020.46
2017-01-08T00:02:17.414Z,1020.47
2017-01-08T00:02:57.997Z,1020.47
2017-01-08T00:03:38.581Z,1020.47
2017-01-08T00:04:19.171Z,1020.43
2017-01-08T00:04:59.773Z,1020.43
2017-01-08T00:05:40.361Z,1020.43
2017-01-08T00:06:20.949Z,1020.44
2017-01-08T00:07:01.532Z,1020.41
2017-01-08T00:07:42.117Z,1020.43
2017-01-08T00:08:22.692Z,1020.44
2017-01-08T00:09:03.274Z,1020.46
2017-01-08T00:09:43.876Z,1020.45
2017-01-08T00:10:24.464Z,1020.48
2017-01-08T00:11:05.042Z,1020.45
2017-01-08T00:11:45.653Z,1020.43
2017-01-08T00:12:26.231Z,1020.47
2017-01-08T00:13:06.822Z,1020.45
2017-01-08T00:13:47.409Z,1020.4
2017-01-08T00:14:27.999Z,1020.42
2017-01-08T00:15:08.596Z,1020.41
2017-01-08T00:15:49.184Z,1020.35
2017-01-08T00:16:29.784Z,1020.41
2017-01-08T00:17:10.374Z,1020.37
2017-01-08T00:17:50.977Z,1020.37
2017-01-08T00:18:31.588Z,1020.41
2017-01-08T00:19:12.168Z,1020.38
2017-01-08T00:19:52.747Z,1020.42
2017-01-08T00:20:33.330Z,1020.34
2017-01-08T00:21:13.921Z,1020.33
2017-01-08T00:21:54.501Z,1020.31
2017-01-08T00:22:35.099Z,1020.33
2017-01-08T00:23:15.698Z,1020.31
2017-01-08T00:23:56.291Z,1020.28
2017-01-08T00:24:36.872Z,1020.25
2017-01-08T00:25:17.450Z,1020.26
2017-01-08T00:25:58.038Z,1020.26
2017-01-08T00:26:38.628Z,1020.24
2017-01-08T00:27:19.202Z,1020.27
2017-01-08T00:27:59.799Z,1020.26
2017-01-08T00:28:40.392Z,1020.26
2017-01-08T00:29:20.991Z,1020.32
2017-01-08T00:30:01.594Z,1020.27
2017-01-08T00:30:42.174Z,1020.32
2017-01-08T00:31:22.782Z,1020.31
2017-01-08T00:32:03.367Z,1020.3
2017-01-08T00:32:43.955Z,1020.25
2017-01-08T00:33:24.544Z,1020.26
2017-01-08T00:34:05.148Z,1020.27
2017-01-08T00:34:45.738Z,1020.26
2017-01-08T00:35:26.323Z,1020.23
2017-01-08T00:36:06.932Z,1020.2
2017-01-08T00:36:47.516Z,1020.22
2017-01-08T00:37:28.116Z,1020.23
2017-01-08T00:38:08.707Z,1020.19
2017-01-08T00:38:49.311Z,1020.2
2017-01-08T00:39:29.891Z,1020.18
2017-01-08T00:40:10.473Z,1020.18
2017-01-08T00:40:51.073Z,1020.16
2017-01-08T00:41:32.672Z,1020.18
2017-01-08T00:42:13.265Z,1020.16
2017-01-08T00:42:53.868Z,1020.12
2017-01-08T00:43:34.455Z,1020.1
2017-01-08T00:44:15.045Z,1020.13
2017-01-08T00:44:55.630Z,1020.13
2017-01-08T00:45:36.219Z,1020.14
2017-01-08T00:46:16.814Z,1020.14
2017-01-08T00:46:57.395Z,1020.14
2017-01-08T00:47:37.974Z,1020.12
2017-01-08T00:48:18.567Z,1020.14
2017-01-08T00:48:59.142Z,1020.14
2017-01-08T00:49:39.730Z,1020.12
2017-01-08T00:50:20.325Z,1020.12
2017-01-08T00:51:00.920Z,1020.09
2017-01-08T00:51:41.514Z,1020.13
2017-01-08T00:52:22.096Z,1020.11
2017-01-08T00:53:02.667Z,1020.11
2017-01-08T00:53:43.252Z,1020.13
2017-01-08T00:54:23.838Z,1020.13
2017-01-08T00:55:04.416Z,1020.07
2017-01-08T00:55:44.999Z,1020.09
2017-01-08T00:56:25.593Z,1020.06
2017-01-08T00:57:06.178Z,1020.06
2017-01-08T00:57:46.798Z,1020.06
2017-01-08T00:58:27.402Z,1020.06
2017-01-08T00:59:07.973Z,1020.08
2017-01-08T00:59:48.573Z,1020.08
2017-01-08T01:00:29.150Z,1020.1
2017-01-08T01:01:09.745Z,1020.1
2017-01-08T01:01:50.322Z,1020.06
2017-01-08T01:02:30.912Z,1020.08
2017-01-08T01:03:11.501Z,1020.04
2017-01-08T01:03:52.084Z,1020.07
2017-01-08T01:04:32.666Z,1020.06
2017-01-08T01:05:13.254Z,1020.06
2017-01-08T01:05:53.844Z,1020.05
2017-01-08T01:06:34.425Z,1020.03
2017-01-08T01:07:15.003Z,1019.99
2017-01-08T01:07:55.587Z,1020.04
2017-01-08T01:08:36.165Z,1020.02
2017-01-08T01:09:16.755Z,1020.03
2017-01-08T01:09:57.346Z,1020.04
2017-01-08T01:10:37.920Z,1020.02
2017-01-08T01:11:18.521Z,1020.04
2017-01-08T01:11:59.108Z,1020.01
2017-01-08T01:12:39.689Z,1020.02
2017-01-08T01:13:20.282Z,1020.02
2017-01-08T01:14:00.870Z,1019.98
2017-01-08T01:14:41.464Z,1019.96
2017-01-08T01:15:22.044Z,1019.97
2017-01-08T01:16:03.262Z,1019.98
2017-01-08T01:16:43.241Z,1019.96
2017-01-08T01:17:23.831Z,1019.98
2017-01-08T01:18:04.438Z,1019.97
2017-01-08T01:18:45.017Z,1019.95
2017-01-08T01:19:25.611Z,1019.96
2017-01-08T01:20:06.202Z,1019.98
2017-01-08T01:20:46.807Z,1019.99
2017-01-08T01:21:27.398Z,1019.99
2017-01-08T01:22:07.972Z,1019.94
2017-01-08T01:22:48.552Z,1019.96
2017-01-08T01:23:29.147Z,1019.96
2017-01-08T01:24:09.730Z,1019.97
2017-01-08T01:24:50.302Z,1019.95
2017-01-08T01:25:30.896Z,1019.97
2017-01-08T01:26:11.495Z,1019.95
2017-01-08T01:26:52.065Z,1019.96
2017-01-08T01:27:32.658Z,1019.94
2017-01-08T01:28:13.228Z,1019.97
2017-01-08T01:28:53.814Z,1019.98
2017-01-08T01:29:34.399Z,1019.99
2017-01-08T01:30:14.988Z,1020
2017-01-08T01:30:55.569Z,1020.01
2017-01-08T01:31:36.152Z,1020.02
2017-01-08T01:32:16.744Z,1019.98
2017-01-08T01:32:57.328Z,1020.03
2017-01-08T01:33:37.920Z,1019.99
2017-01-08T01:34:18.502Z,1020.01
2017-01-08T01:34:59.089Z,1020
2017-01-08T01:35:39.675Z,1019.98
2017-01-08T01:36:20.253Z,1019.97
2017-01-08T01:37:00.839Z,1019.97
2017-01-08T01:37:41.423Z,1019.91
2017-01-08T01:38:22.015Z,1019.97
2017-01-08T01:39:02.605Z,1019.95
2017-01-08T01:39:43.186Z,1019.95
2017-01-08T01:40:23.770Z,1019.95
2017-01-08T01:41:04.362Z,1019.93
2017-01-08T01:41:44.943Z,1019.92
2017-01-08T01:42:25.535Z,1019.95
2017-01-08T01:43:06.129Z,1019.94
2017-01-08T01:43:46.713Z,1019.94
2017-01-08T01:44:27.294Z,1019.95
2017-01-08T01:45:07.891Z,1019.95
2017-01-08T01:45:48.469Z,1019.91
2017-01-08T01:46:29.055Z,1019.93
2017-01-08T01:47:09.638Z,1019.93
2017-01-08T01:47:50.226Z,1019.96
2017-01-08T01:48:30.810Z,1019.92
2017-01-08T01:49:11.413Z,1019.95
2017-01-08T01:49:51.996Z,1019.97
2017-01-08T01:50:32.585Z,1019.97
2017-01-08T01:51:13.175Z,1019.97
2017-01-08T01:51:53.751Z,1019.93
2017-01-08T01:52:34.347Z,1019.95
2017-01-08T01:53:14.923Z,1019.94
2017-01-08T01:53:55.507Z,1019.95
2017-01-08T01:54:36.101Z,1019.93
2017-01-08T01:55:16.692Z,1019.92
2017-01-08T01:55:57.272Z,1019.93
2017-01-08T01:56:37.852Z,1019.95
2017-01-08T01:57:18.441Z,1019.96
2017-01-08T01:57:59.026Z,1019.93
2017-01-08T01:58:39.602Z,1019.95
2017-01-08T01:59:20.194Z,1019.94
2017-01-08T02:00:00.774Z,1019.93
2017-01-08T02:00:41.363Z,1019.97
2017-01-08T02:01:21.943Z,1019.94
2017-01-08T02:02:02.533Z,1019.97
2017-01-08T02:02:43.110Z,1019.96
2017-01-08T02:03:23.696Z,1019.96
2017-01-08T02:04:04.282Z,1019.99
2017-01-08T02:04:44.881Z,1020
2017-01-08T02:05:25.475Z,1019.97
2017-01-08T02:06:06.053Z,1019.94
2017-01-08T02:06:46.644Z,1019.95
2017-01-08T02:07:27.224Z,1019.95
2017-01-08T02:08:07.803Z,1019.93
2017-01-08T02:08:48.391Z,1019.95
2017-01-08T02:09:28.962Z,1019.92
2017-01-08T02:10:09.540Z,1019.95
2017-01-08T02:10:50.147Z,1019.91
2017-01-08T02:11:30.742Z,1019.93
2017-01-08T02:12:11.325Z,1019.98
2017-01-08T02:12:51.912Z,1019.97
2017-01-08T02:13:32.501Z,1019.93
2017-01-08T02:14:13.084Z,1019.95
2017-01-08T02:14:53.668Z,1019.93
2017-01-08T02:15:34.259Z,1019.97
2017-01-08T02:16:14.835Z,1019.93
2017-01-08T02:16:55.426Z,1019.92
2017-01-08T02:17:36.006Z,1019.92
2017-01-08T02:18:16.587Z,1019.93
2017-01-08T02:18:57.170Z,1019.91
2017-01-08T02:19:37.758Z,1019.86
2017-01-08T02:20:18.360Z,1019.9
2017-01-08T02:20:58.938Z,1019.89
2017-01-08T02:21:39.534Z,1019.86
2017-01-08T02:22:20.115Z,1019.89
2017-01-08T02:23:00.699Z,1019.87
2017-01-08T02:23:41.281Z,1019.86
2017-01-08T02:24:21.868Z,1019.85
2017-01-08T02:25:02.479Z,1019.84
2017-01-08T02:25:43.063Z,1019.86
2017-01-08T02:26:23.648Z,1019.85
2017-01-08T02:27:04.228Z,1019.82
2017-01-08T02:27:44.827Z,1019.87
2017-01-08T02:28:25.416Z,1019.79
2017-01-08T02:29:06.001Z,1019.81
2017-01-08T02:29:46.572Z,1019.83
2017-01-08T02:30:27.154Z,1019.82
2017-01-08T02:31:07.735Z,1019.8
2017-01-08T02:31:48.350Z,1019.79
2017-01-08T02:32:28.934Z,1019.82
2017-01-08T02:33:09.524Z,1019.81
2017-01-08T02:33:50.107Z,1019.77
2017-01-08T02:34:30.685Z,1019.74
2017-01-08T02:35:11.275Z,1019.72
2017-01-08T02:35:51.867Z,1019.76
2017-01-08T02:36:32.455Z,1019.74
2017-01-08T02:37:13.053Z,1019.72
2017-01-08T02:37:53.635Z,1019.73
2017-01-08T02:38:34.209Z,1019.7
2017-01-08T02:39:14.829Z,1019.71
2017-01-08T02:39:55.409Z,1019.72
2017-01-08T02:40:35.984Z,1019.7
2017-01-08T02:41:16.578Z,1019.71
2017-01-08T02:41:57.158Z,1019.66
2017-01-08T02:42:37.740Z,1019.67
2017-01-08T02:43:18.320Z,1019.63
2017-01-08T02:43:58.907Z,1019.68
2017-01-08T02:44:39.500Z,1019.62
2017-01-08T02:45:20.081Z,1019.68
2017-01-08T02:46:00.667Z,1019.68
2017-01-08T02:46:41.250Z,1019.69
2017-01-08T02:47:21.843Z,1019.68
2017-01-08T02:48:02.425Z,1019.69
2017-01-08T02:48:43.015Z,1019.72
2017-01-08T02:49:23.606Z,1019.72
2017-01-08T02:50:04.186Z,1019.76
2017-01-08T02:50:44.789Z,1019.74
2017-01-08T02:51:25.375Z,1019.72
2017-01-08T02:52:05.959Z,1019.71
2017-01-08T02:52:46.542Z,1019.72
2017-01-08T02:53:27.131Z,1019.7
2017-01-08T02:54:07.723Z,1019.73
2017-01-08T02:54:48.304Z,1019.71
2017-01-08T02:55:28.886Z,1019.7
2017-01-08T02:56:09.465Z,1019.67
2017-01-08T02:56:50.065Z,1019.67
2017-01-08T02:57:30.642Z,1019.65
2017-01-08T02:58:11.227Z,1019.66
2017-01-08T02:58:51.809Z,1019.66
2017-01-08T02:59:32.396Z,1019.67
2017-01-08T03:00:12.974Z,1019.63
2017-01-08T03:00:53.560Z,1019.64
2017-01-08T03:01:34.150Z,1019.63
2017-01-08T03:02:14.727Z,1019.64
2017-01-08T03:02:55.313Z,1019.62
2017-01-08T03:03:35.891Z,1019.62
2017-01-08T03:04:16.479Z,1019.6
2017-01-08T03:04:57.058Z,1019.59
2017-01-08T03:05:37.633Z,1019.57
2017-01-08T03:06:18.223Z,1019.56
2017-01-08T03:06:58.817Z,1019.54
2017-01-08T03:07:39.395Z,1019.53
2017-01-08T03:08:19.977Z,1019.52
2017-01-08T03:09:00.590Z,1019.55
2017-01-08T03:09:41.170Z,1019.53
2017-01-08T03:10:21.747Z,1019.52
2017-01-08T03:11:02.337Z,1019.52
2017-01-08T03:11:42.936Z,1019.51
2017-01-08T03:12:23.530Z,1019.53
2017-01-08T03:13:04.111Z,1019.52
2017-01-08T03:13:44.695Z,1019.51
2017-01-08T03:14:25.274Z,1019.49
2017-01-08T03:15:05.861Z,1019.51
2017-01-08T03:15:46.441Z,1019.49
2017-01-08T03:16:27.026Z,1019.48
2017-01-08T03:17:07.630Z,1019.48
2017-01-08T03:17:48.213Z,1019.41
2017-01-08T03:18:28.802Z,1019.38
2017-01-08T03:19:09.384Z,1019.41
2017-01-08T03:19:49.974Z,1019.4
2017-01-08T03:20:30.572Z,1019.38
2017-01-08T03:21:11.157Z,1019.37
2017-01-08T03:21:51.734Z,1019.37
2017-01-08T03:22:32.312Z,1019.4
2017-01-08T03:23:12.891Z,1019.39
2017-01-08T03:23:53.465Z,1019.4
2017-01-08T03:24:34.066Z,1019.39
2017-01-08T03:25:14.650Z,1019.4
2017-01-08T03:25:55.233Z,1019.42
2017-01-08T03:26:35.820Z,1019.39
2017-01-08T03:27:16.408Z,1019.4
2017-01-08T03:27:56.998Z,1019.41
2017-01-08T03:28:37.581Z,1019.42
2017-01-08T03:29:18.172Z,1019.41
2017-01-08T03:29:58.751Z,1019.42
2017-01-08T03:30:39.350Z,1019.39
2017-01-08T03:31:19.929Z,1019.38
2017-01-08T03:32:00.509Z,1019.4
2017-01-08T03:32:41.093Z,1019.38
2017-01-08T03:33:21.685Z,1019.36
2017-01-08T03:34:02.266Z,1019.36
2017-01-08T03:34:42.853Z,1019.36
2017-01-08T03:35:23.441Z,1019.39
2017-01-08T03:36:04.027Z,1019.35
2017-01-08T03:36:44.616Z,1019.35
2017-01-08T03:37:25.213Z,1019.35
2017-01-08T03:38:05.798Z,1019.33
2017-01-08T03:38:46.373Z,1019.33
2017-01-08T03:39:26.958Z,1019.32
2017-01-08T03:40:07.536Z,1019.32
2017-01-08T03:40:48.122Z,1019.32
2017-01-08T03:41:28.724Z,1019.33
2017-01-08T03:42:09.311Z,1019.32
2017-01-08T03:42:49.920Z,1019.29
2017-01-08T03:43:30.492Z,1019.29
2017-01-08T03:44:11.075Z,1019.28
2017-01-08T03:44:51.667Z,1019.29
2017-01-08T03:45:32.274Z,1019.3
2017-01-08T03:46:12.885Z,1019.32
2017-01-08T03:46:53.484Z,1019.27
2017-01-08T03:47:34.083Z,1019.33
2017-01-08T03:48:14.676Z,1019.33
2017-01-08T03:48:55.249Z,1019.35
2017-01-08T03:49:35.845Z,1019.32
2017-01-08T03:50:16.434Z,1019.33
2017-01-08T03:50:57.033Z,1019.35
2017-01-08T03:51:37.628Z,1019.37
2017-01-08T03:52:18.207Z,1019.32
2017-01-08T03:52:58.790Z,1019.29
2017-01-08T03:53:39.374Z,1019.29
2017-01-08T03:54:19.956Z,1019.3
2017-01-08T03:55:00.557Z,1019.34
2017-01-08T03:55:41.136Z,1019.31
2017-01-08T03:56:21.716Z,1019.34
2017-01-08T03:57:02.296Z,1019.32
2017-01-08T03:57:42.880Z,1019.36
2017-01-08T03:58:23.456Z,1019.35
2017-01-08T03:59:04.070Z,1019.32
2017-01-08T03:59:44.672Z,1019.36
2017-01-08T04:00:25.263Z,1019.33
2017-01-08T04:01:05.878Z,1019.33
2017-01-08T04:01:46.463Z,1019.33
2017-01-08T04:02:27.079Z,1019.29
2017-01-08T04:03:07.666Z,1019.31
2017-01-08T04:03:48.281Z,1019.31
2017-01-08T04:04:28.869Z,1019.35
2017-01-08T04:05:09.484Z,1019.32
2017-01-08T04:05:50.078Z,1019.32
2017-01-08T04:06:30.665Z,1019.29
2017-01-08T04:07:11.254Z,1019.31
2017-01-08T04:07:51.834Z,1019.28
2017-01-08T04:08:32.418Z,1019.3
2017-01-08T04:09:13.000Z,1019.29
2017-01-08T04:09:53.581Z,1019.28
2017-01-08T04:10:34.165Z,1019.27
2017-01-08T04:11:14.746Z,1019.26
2017-01-08T04:11:55.329Z,1019.24
2017-01-08T04:12:35.904Z,1019.27
2017-01-08T04:13:16.488Z,1019.24
2017-01-08T04:13:57.078Z,1019.26
2017-01-08T04:14:37.658Z,1019.21
2017-01-08T04:15:18.259Z,1019.23
2017-01-08T04:15:58.846Z,1019.22
2017-01-08T04:16:39.447Z,1019.21
2017-01-08T04:17:20.042Z,1019.24
2017-01-08T04:18:00.616Z,1019.23
2017-01-08T04:18:41.207Z,1019.19
2017-01-08T04:19:21.790Z,1019.21
2017-01-08T04:20:02.369Z,1019.24
2017-01-08T04:20:42.949Z,1019.22
2017-01-08T04:21:23.528Z,1019.2
2017-01-08T04:22:04.112Z,1019.22
2017-01-08T04:22:44.713Z,1019.21
2017-01-08T04:23:25.300Z,1019.21
2017-01-08T04:24:05.881Z,1019.22
2017-01-08T04:24:46.463Z,1019.17
2017-01-08T04:25:27.048Z,1019.18
2017-01-08T04:26:07.623Z,1019.17
2017-01-08T04:26:48.223Z,1019.14
2017-01-08T04:27:28.828Z,1019.1
2017-01-08T04:28:09.407Z,1019.11
2017-01-08T04:28:49.996Z,1019.11
2017-01-08T04:29:30.580Z,1019.07
2017-01-08T04:30:11.155Z,1019.08
2017-01-08T04:30:51.736Z,1019.05
2017-01-08T04:31:32.319Z,1019.08
2017-01-08T04:32:12.893Z,1019.04
2017-01-08T04:32:53.484Z,1019.06
2017-01-08T04:33:34.068Z,1019.07
2017-01-08T04:34:14.650Z,1019.05
2017-01-08T04:34:55.241Z,1019.06
2017-01-08T04:35:35.823Z,1019.06
2017-01-08T04:36:16.402Z,1019.08
2017-01-08T04:36:56.975Z,1019.05
2017-01-08T04:37:37.555Z,1019.06
2017-01-08T04:38:18.139Z,1019.07
2017-01-08T04:38:58.741Z,1019.07
2017-01-08T04:39:39.330Z,1019.04
2017-01-08T04:40:19.918Z,1019.05
2017-01-08T04:41:00.512Z,1019.06
2017-01-08T04:41:41.108Z,1019.06
2017-01-08T04:42:21.693Z,1019.11
2017-01-08T04:43:02.285Z,1019.07
2017-01-08T04:43:42.882Z,1019.09
2017-01-08T04:44:23.457Z,1019.11
2017-01-08T04:45:04.038Z,1019.07
2017-01-08T04:45:44.628Z,1019.07
2017-01-08T04:46:25.217Z,1019.07
2017-01-08T04:47:05.804Z,1019.08
2017-01-08T04:47:46.404Z,1019.07
2017-01-08T04:48:26.984Z,1019.05
2017-01-08T04:49:07.565Z,1019.02
2017-01-08T04:49:48.145Z,1019.06
2017-01-08T04:50:28.736Z,1019.08
2017-01-08T04:51:09.318Z,1019.07
2017-01-08T04:51:49.905Z,1019.05
2017-01-08T04:52:30.507Z,1019.02
2017-01-08T04:53:11.108Z,1019.02
2017-01-08T04:53:51.684Z,1019.03
2017-01-08T04:54:32.277Z,1019.02
2017-01-08T04:55:12.863Z,1019
2017-01-08T04:55:53.460Z,1019.01
2017-01-08T04:56:34.038Z,1019
2017-01-08T04:57:14.630Z,1019.02
2017-01-08T04:57:55.215Z,1019.01
2017-01-08T04:58:35.793Z,1019.02
2017-01-08T04:59:16.378Z,1018.97
2017-01-08T04:59:56.955Z,1019
2017-01-08T05:00:37.532Z,1019.01
2017-01-08T05:01:18.114Z,1018.97
2017-01-08T05:01:58.694Z,1018.96
2017-01-08T05:02:39.289Z,1018.97
2017-01-08T05:03:19.884Z,1018.95
2017-01-08T05:04:00.477Z,1018.98
2017-01-08T05:04:41.076Z,1018.95
2017-01-08T05:05:21.678Z,1018.92
2017-01-08T05:06:02.261Z,1018.92
2017-01-08T05:06:42.841Z,1018.95
2017-01-08T05:07:23.454Z,1018.97
2017-01-08T05:08:04.058Z,1018.95
2017-01-08T05:08:44.656Z,1018.93
2017-01-08T05:09:25.258Z,1018.9
2017-01-08T05:10:05.853Z,1018.94
2017-01-08T05:10:46.450Z,1018.94
2017-01-08T05:11:27.067Z,1018.92
2017-01-08T05:12:07.654Z,1018.92
2017-01-08T05:12:48.232Z,1018.93
2017-01-08T05:13:28.812Z,1018.92
2017-01-08T05:14:09.418Z,1018.95
2017-01-08T05:14:50.014Z,1018.92
2017-01-08T05:15:30.622Z,1018.92
2017-01-08T05:16:11.208Z,1018.93
2017-01-08T05:16:51.802Z,1018.92
2017-01-08T05:17:32.381Z,1018.89
2017-01-08T05:18:12.975Z,1018.91
2017-01-08T05:18:53.565Z,1018.89
2017-01-08T05:19:34.144Z,1018.88
2017-01-08T05:20:14.735Z,1018.87
2017-01-08T05:20:55.320Z,1018.88
2017-01-08T05:21:35.899Z,1018.88
2017-01-08T05:22:16.488Z,1018.87
2017-01-08T05:22:57.071Z,1018.89
2017-01-08T05:23:37.662Z,1018.9
2017-01-08T05:24:18.240Z,1018.87
2017-01-08T05:24:58.837Z,1018.94
2017-01-08T05:25:39.439Z,1018.9
2017-01-08T05:26:20.050Z,1018.91
2017-01-08T05:27:00.633Z,1018.92
2017-01-08T05:27:41.208Z,1018.92
2017-01-08T05:28:21.791Z,1018.92
2017-01-08T05:29:02.391Z,1018.91
2017-01-08T05:29:42.986Z,1018.9
2017-01-08T05:30:23.565Z,1018.89
2017-01-08T05:31:04.155Z,1018.89
2017-01-08T05:31:44.740Z,1018.87
2017-01-08T05:32:25.321Z,1018.88
2017-01-08T05:33:05.906Z,1018.91
2017-01-08T05:33:46.491Z,1018.88
2017-01-08T05:34:27.100Z,1018.89
2017-01-08T05:35:07.697Z,1018.9
2017-01-08T05:35:48.278Z,1018.9
2017-01-08T05:36:28.864Z,1018.92
2017-01-08T05:37:09.467Z,1018.89
2017-01-08T05:37:50.050Z,1018.88
2017-01-08T05:38:30.629Z,1018.87
2017-01-08T05:39:11.228Z,1018.89
2017-01-08T05:39:51.807Z,1018.9
2017-01-08T05:40:32.394Z,1018.86
2017-01-08T05:41:12.988Z,1018.86
2017-01-08T05:41:53.570Z,1018.86
2017-01-08T05:42:34.158Z,1018.82
2017-01-08T05:43:14.744Z,1018.8
2017-01-08T05:43:55.330Z,1018.79
2017-01-08T05:44:35.920Z,1018.78
2017-01-08T05:45:16.506Z,1018.76
2017-01-08T05:45:57.086Z,1018.74
2017-01-08T05:46:37.663Z,1018.8
2017-01-08T05:47:18.242Z,1018.78
2017-01-08T05:47:58.830Z,1018.76
2017-01-08T05:48:39.425Z,1018.77
2017-01-08T05:49:20.023Z,1018.79
2017-01-08T05:50:00.615Z,1018.8
2017-01-08T05:50:41.198Z,1018.79
2017-01-08T05:51:21.794Z,1018.79
2017-01-08T05:52:02.394Z,1018.8
2017-01-08T05:52:42.987Z,1018.82
2017-01-08T05:53:23.566Z,1018.85
2017-01-08T05:54:04.158Z,1018.83
2017-01-08T05:54:44.746Z,1018.83
2017-01-08T05:55:25.357Z,1018.87
2017-01-08T05:56:05.937Z,1018.89
2017-01-08T05:56:46.528Z,1018.87
2017-01-08T05:57:27.122Z,1018.87
2017-01-08T05:58:07.707Z,1018.85
2017-01-08T05:58:48.298Z,1018.85
2017-01-08T05:59:28.888Z,1018.86
2017-01-08T06:00:09.461Z,1018.84
2017-01-08T06:00:50.046Z,1018.82
2017-01-08T06:01:30.642Z,1018.85
2017-01-08T06:02:11.246Z,1018.86
2017-01-08T06:02:51.853Z,1018.84
2017-01-08T06:03:32.432Z,1018.85
2017-01-08T06:04:13.010Z,1018.83
2017-01-08T06:04:53.592Z,1018.81
2017-01-08T06:05:34.183Z,1018.85
2017-01-08T06:06:14.768Z,1018.84
2017-01-08T06:06:55.362Z,1018.79
2017-01-08T06:07:35.941Z,1018.81
2017-01-08T06:08:16.523Z,1018.82
2017-01-08T06:08:57.104Z,1018.85
2017-01-08T06:09:37.681Z,1018.82
2017-01-08T06:10:18.279Z,1018.84
2017-01-08T06:10:58.862Z,1018.87
2017-01-08T06:11:39.435Z,1018.82
2017-01-08T06:12:20.028Z,1018.83
2017-01-08T06:13:00.626Z,1018.84
2017-01-08T06:13:41.224Z,1018.83
2017-01-08T06:14:21.827Z,1018.84
2017-01-08T06:15:02.457Z,1018.85
2017-01-08T06:15:43.047Z,1018.91
2017-01-08T06:16:23.633Z,1018.87
2017-01-08T06:17:04.253Z,1018.85
2017-01-08T06:17:44.832Z,1018.89
2017-01-08T06:18:25.409Z,1018.9
2017-01-08T06:19:05.999Z,1018.89
2017-01-08T06:19:46.608Z,1018.9
2017-01-08T06:20:27.201Z,1018.89
2017-01-08T06:21:07.801Z,1018.88
2017-01-08T06:21:48.393Z,1018.88
2017-01-08T06:22:28.989Z,1018.88
2017-01-08T06:23:09.563Z,1018.91
2017-01-08T06:23:50.146Z,1018.87
2017-01-08T06:24:30.726Z,1018.93
2017-01-08T06:25:11.312Z,1018.88
2017-01-08T06:25:51.925Z,1018.9
2017-01-08T06:26:32.512Z,1018.87
2017-01-08T06:27:13.108Z,1018.86
2017-01-08T06:27:53.685Z,1018.9
2017-01-08T06:28:34.268Z,1018.88
2017-01-08T06:29:14.861Z,1018.86
2017-01-08T06:29:55.440Z,1018.86
2017-01-08T06:30:36.023Z,1018.88
2017-01-08T06:31:16.602Z,1018.88
2017-01-08T06:31:57.179Z,1018.88
2017-01-08T06:32:37.764Z,1018.91
2017-01-08T06:33:18.338Z,1018.89
2017-01-08T06:33:58.927Z,1018.9
2017-01-08T06:34:39.501Z,1018.89
2017-01-08T06:35:20.087Z,1018.88
2017-01-08T06:36:00.676Z,1018.86
2017-01-08T06:36:41.253Z,1018.91
2017-01-08T06:37:21.837Z,1018.91
2017-01-08T06:38:02.436Z,1018.9
2017-01-08T06:38:43.021Z,1018.9
2017-01-08T06:39:23.615Z,1018.91
2017-01-08T06:40:04.195Z,1018.9
2017-01-08T06:40:44.792Z,1018.92
2017-01-08T06:41:25.387Z,1018.91
2017-01-08T06:42:05.966Z,1018.91
2017-01-08T06:42:46.554Z,1018.93
2017-01-08T06:43:27.155Z,1018.91
2017-01-08T06:44:07.745Z,1018.89
2017-01-08T06:44:48.329Z,1018.93
2017-01-08T06:45:28.917Z,1018.93
2017-01-08T06:46:09.510Z,1018.9
2017-01-08T06:46:50.103Z,1018.93
2017-01-08T06:47:30.679Z,1018.89
2017-01-08T06:48:11.272Z,1018.9
2017-01-08T06:48:51.874Z,1018.9
2017-01-08T06:49:32.469Z,1018.89
2017-01-08T06:50:13.071Z,1018.9
2017-01-08T06:50:53.651Z,1018.89
2017-01-08T06:51:34.223Z,1018.85
2017-01-08T06:52:14.816Z,1018.88
2017-01-08T06:52:55.391Z,1018.88
2017-01-08T06:53:35.972Z,1018.85
2017-01-08T06:54:16.556Z,1018.84
2017-01-08T06:54:57.153Z,1018.86
2017-01-08T06:55:37.737Z,1018.82
2017-01-08T06:56:18.328Z,1018.85
2017-01-08T06:56:58.929Z,1018.85
2017-01-08T06:57:39.528Z,1018.86
2017-01-08T06:58:20.119Z,1018.85
2017-01-08T06:59:00.702Z,1018.85
2017-01-08T06:59:41.301Z,1018.85
2017-01-08T07:00:21.878Z,1018.83
2017-01-08T07:01:02.466Z,1018.82
2017-01-08T07:01:43.050Z,1018.8
2017-01-08T07:02:23.629Z,1018.83
2017-01-08T07:03:04.249Z,1018.84
2017-01-08T07:03:44.832Z,1018.83
2017-01-08T07:04:25.422Z,1018.83
2017-01-08T07:05:06.001Z,1018.83
2017-01-08T07:05:46.585Z,1018.86
2017-01-08T07:06:27.165Z,1018.86
2017-01-08T07:07:07.757Z,1018.88
2017-01-08T07:07:48.354Z,1018.91
2017-01-08T07:08:28.960Z,1018.88
2017-01-08T07:09:09.554Z,1018.9
2017-01-08T07:09:50.141Z,1018.92
2017-01-08T07:10:30.724Z,1018.91
2017-01-08T07:11:11.298Z,1018.92
2017-01-08T07:11:51.887Z,1018.92
2017-01-08T07:12:32.494Z,1018.9
2017-01-08T07:13:13.080Z,1018.9
2017-01-08T07:13:53.666Z,1018.88
2017-01-08T07:14:34.255Z,1018.9
2017-01-08T07:15:14.850Z,1018.87
2017-01-08T07:15:55.448Z,1018.86
2017-01-08T07:16:36.051Z,1018.87
2017-01-08T07:17:16.634Z,1018.88
2017-01-08T07:17:57.216Z,1018.86
2017-01-08T07:18:37.807Z,1018.86
2017-01-08T07:19:18.404Z,1018.84
2017-01-08T07:19:58.996Z,1018.82
2017-01-08T07:20:39.578Z,1018.87
2017-01-08T07:21:20.156Z,1018.85
2017-01-08T07:22:00.747Z,1018.88
2017-01-08T07:22:41.327Z,1018.86
2017-01-08T07:23:21.921Z,1018.86
2017-01-08T07:24:02.501Z,1018.86
2017-01-08T07:24:43.078Z,1018.84
2017-01-08T07:25:23.662Z,1018.83
2017-01-08T07:26:04.243Z,1018.82
2017-01-08T07:26:44.823Z,1018.8
2017-01-08T07:27:25.414Z,1018.8
2017-01-08T07:28:05.992Z,1018.79
2017-01-08T07:28:46.582Z,1018.8
2017-01-08T07:29:27.181Z,1018.82
2017-01-08T07:30:07.791Z,1018.8
2017-01-08T07:30:48.389Z,1018.79
2017-01-08T07:31:28.989Z,1018.77
2017-01-08T07:32:09.612Z,1018.8
2017-01-08T07:32:50.195Z,1018.77
2017-01-08T07:33:30.778Z,1018.82
2017-01-08T07:34:11.376Z,1018.76
2017-01-08T07:34:51.956Z,1018.79
2017-01-08T07:35:32.565Z,1018.78
2017-01-08T07:36:13.169Z,1018.8
2017-01-08T07:36:53.747Z,1018.79
2017-01-08T07:37:34.329Z,1018.78
2017-01-08T07:38:14.922Z,1018.78
2017-01-08T07:38:55.510Z,1018.75
2017-01-08T07:39:36.094Z,1018.76
2017-01-08T07:40:16.676Z,1018.77
2017-01-08T07:40:57.263Z,1018.82
2017-01-08T07:41:37.859Z,1018.82
2017-01-08T07:42:18.439Z,1018.82
2017-01-08T07:42:59.027Z,1018.82
2017-01-08T07:43:39.630Z,1018.81
2017-01-08T07:44:20.218Z,1018.82
2017-01-08T07:45:00.816Z,1018.8
2017-01-08T07:45:41.423Z,1018.79
2017-01-08T07:46:22.014Z,1018.78
2017-01-08T07:47:02.611Z,1018.76
2017-01-08T07:47:43.208Z,1018.77
2017-01-08T07:48:23.792Z,1018.71
2017-01-08T07:49:04.372Z,1018.76
2017-01-08T07:49:44.961Z,1018.75
2017-01-08T07:50:25.547Z,1018.76
2017-01-08T07:51:06.124Z,1018.76
2017-01-08T07:51:46.734Z,1018.77
2017-01-08T07:52:27.344Z,1018.77
2017-01-08T07:53:07.938Z,1018.79
2017-01-08T07:53:48.544Z,1018.79
2017-01-08T07:54:29.140Z,1018.75
2017-01-08T07:55:09.717Z,1018.76
2017-01-08T07:55:50.308Z,1018.77
2017-01-08T07:56:30.886Z,1018.77
2017-01-08T07:57:11.465Z,1018.75
2017-01-08T07:57:52.066Z,1018.76
2017-01-08T07:58:32.666Z,1018.73
2017-01-08T07:59:13.254Z,1018.71
2017-01-08T07:59:53.833Z,1018.71
2017-01-08T08:00:34.420Z,1018.72
2017-01-08T08:01:15.008Z,1018.74
2017-01-08T08:01:55.615Z,1018.69
2017-01-08T08:02:36.200Z,1018.73
2017-01-08T08:03:16.793Z,1018.72
2017-01-08T08:03:57.384Z,1018.7
2017-01-08T08:04:37.975Z,1018.75
2017-01-08T08:05:18.557Z,1018.7
2017-01-08T08:05:59.133Z,1018.72
2017-01-08T08:06:39.711Z,1018.71
2017-01-08T08:07:20.307Z,1018.7
2017-01-08T08:08:00.894Z,1018.67
2017-01-08T08:08:41.487Z,1018.71
2017-01-08T08:09:22.073Z,1018.7
2017-01-08T08:10:02.646Z,1018.73
2017-01-08T08:10:43.233Z,1018.73
2017-01-08T08:11:23.824Z,1018.69
2017-01-08T08:12:04.405Z,1018.75
2017-01-08T08:12:44.991Z,1018.75